Time;durP1;ratioP1;P1;durP2;ratioP2;P2;SDS_P1;SDS_P2;PMS_P1;PMS_P2;Temp;Humidity;BMP_temperature;BMP_pressure;BME280_temperature;BME280_humidity;BME280_pressure;Samples;Min_cycle;Max_cycle;Signal;HPM_P1;HPM_P2
2022/12/05 04:26:31;;;;;;;16.42;7.03;;;;;;;;;;6188724;23;20086;-79
2022/12/05 04:29:01;;;;;;;14.38;7.25;;;;;;;;;;6161395;23;20025;-82
2022/12/05 04:31:32;;;;;;;15.00;6.87;;;;;;;;;;6135873;23;20358;-82
2022/12/05 04:34:05;;;;;;;14.27;6.63;;;;;;;;;;6113440;23;20354;-81
2022/12/05 04:36:39;;;;;;;17.60;8.60;;;;;;;;;;6135812;23;20005;-81
2022/12/05 04:39:25;;;;;;;14.48;7.40;;;;;;;;;;6158626;23;20009;-81
2022/12/05 04:41:54;;;;;;;16.25;7.07;;;;;;;;;;6135718;23;20016;-80
2022/12/05 04:44:31;;;;;;;18.58;8.00;;;;;;;;;;6136310;23;20024;-82
2022/12/05 04:47:00;;;;;;;18.48;8.10;;;;;;;;;;6137352;23;20012;-81
2022/12/05 04:49:29;;;;;;;16.52;8.35;;;;;;;;;;6160620;23;20381;-80
2022/12/05 04:52:00;;;;;;;18.35;8.50;;;;;;;;;;6137070;23;20014;-81
2022/12/05 04:54:31;;;;;;;17.60;8.45;;;;;;;;;;6163563;23;19998;-80
2022/12/05 04:57:05;;;;;;;15.65;7.70;;;;;;;;;;6137010;23;20033;-82
2022/12/05 04:59:35;;;;;;;17.25;7.78;;;;;;;;;;6163246;23;20056;-82
2022/12/05 05:02:13;;;;;;;15.38;7.60;;;;;;;;;;6140918;23;20013;-82
2022/12/05 05:04:49;;;;;;;17.65;8.73;;;;;;;;;;6163560;23;20017;-81
2022/12/05 05:07:26;;;;;;;20.55;8.50;;;;;;;;;;6166759;23;20341;-82
2022/12/05 05:09:52;;;;;;;19.00;8.98;;;;;;;;;;6164616;23;20082;-82
2022/12/05 05:12:28;;;;;;;19.27;8.52;;;;;;;;;;6166120;23;20330;-83
2022/12/05 05:14:54;;;;;;;19.67;9.52;;;;;;;;;;6167638;23;20013;-81
2022/12/05 05:17:23;;;;;;;18.55;8.40;;;;;;;;;;6169828;23;20005;-83
2022/12/05 05:20:22;;;;;;;19.15;8.80;;;;;;;;;;6175950;23;20013;-82
2022/12/05 05:22:47;;;;;;;20.02;9.27;;;;;;;;;;6177098;23;20017;-84
2022/12/05 05:25:20;;;;;;;18.65;8.65;;;;;;;;;;6179388;23;19998;-84
2022/12/05 05:27:48;;;;;;;19.88;8.40;;;;;;;;;;6180209;23;20001;-82
2022/12/05 05:30:18;;;;;;;18.02;9.07;;;;;;;;;;6171397;23;20028;-83
2022/12/05 05:32:50;;;;;;;;;;;4.10;99.90;;;;;;6164234;23;20013;-82
2022/12/05 05:35:16;;;;;;;16.25;8.18;;;;;;;;;;6138164;23;19904;-82
2022/12/05 05:37:44;;;;;;;15.23;8.02;;;;;;;;;;6139914;23;20002;-82
2022/12/05 05:40:15;;;;;;;15.88;7.97;;;;;;;;;;6143412;23;20018;-85
2022/12/05 05:42:56;;;;;;;17.52;8.07;;;;;;;;;;6147321;23;20006;-82
2022/12/05 05:45:22;;;;;;;16.83;8.02;;;;;;;;;;6138726;23;20018;-82
2022/12/05 05:47:54;;;;;;;17.85;8.27;;;;;;;;;;6161915;23;20006;-82
2022/12/05 05:50:20;;;;;;;15.10;8.20;;;;;;;;;;6135165;23;20104;-81
2022/12/05 05:52:59;;;;;;;17.17;8.70;;;;;;;;;;6162271;23;20005;-81
2022/12/05 05:55:31;;;;;;;18.27;8.68;;;;;;;;;;6163049;23;20092;-81
2022/12/05 05:57:58;;;;;;;16.30;8.18;;;;;;;;;;6135007;23;20009;-82
2022/12/05 06:00:27;;;;;;;19.42;9.55;;;;;;;;;;6134787;23;20045;-81
2022/12/05 06:03:02;;;;;;;17.33;8.40;;;;;;;;;;6133847;23;20010;-82
2022/12/05 06:11:57;;;;;;;16.83;8.40;;;;;;;;;;6172377;23;20037;-84
2022/12/05 06:14:32;;;;;;;21.10;10.07;;;;;;;;;;6172185;23;19989;-82
2022/12/05 06:17:17;;;;;;;21.02;9.43;;;;;;;;;;6154587;23;20040;-82
2022/12/05 06:20:01;;;;;;;24.15;10.63;;;;;;;;;;6173043;23;20064;-84
2022/12/05 06:22:27;;;;;;;17.55;8.85;;;;;;;;;;6136925;23;20045;-80
2022/12/05 06:24:54;;;;;;;20.48;8.80;;;;;;;;;;6137853;23;20004;-83
2022/12/05 06:27:28;;;;;;;16.88;8.88;;;;;;;;;;6042872;23;20018;-82
2022/12/05 06:29:55;;;;;;;22.35;9.15;;;;;;;;;;6159903;23;20033;-80
2022/12/05 06:32:21;;;;;;;19.25;8.85;;;;;;;;;;6134264;23;20021;-80
2022/12/05 06:34:47;;;;;;;16.90;9.35;;;;;;;;;;6162161;23;20005;-80
2022/12/05 06:37:15;;;;;;;22.40;10.27;;;;;;;;;;6163250;23;20005;-80
2022/12/05 06:39:46;;;;;;;21.23;9.23;;;;;;;;;;6136093;23;20037;-81
2022/12/05 06:42:15;;;;;;;19.30;8.38;;;;;;;;;;6160700;23;20021;-81
2022/12/05 06:44:45;;;;;;;19.38;9.00;;;;;;;;;;6136439;23;20008;-82
2022/12/05 06:47:12;;;;;;;24.52;10.60;;;;;;;;;;6136767;23;20009;-82
2022/12/05 06:49:42;;;;;;;20.10;9.50;;;;;;;;;;6166760;23;20374;-80
2022/12/05 06:52:11;;;;;;;24.98;10.30;;;;;;;;;;6159066;23;20382;-80
2022/12/05 06:54:37;;;;;;;28.40;10.88;;;;;;;;;;6138369;23;20012;-80
2022/12/05 06:57:04;;;;;;;24.88;10.82;;;;;;;;;;6144851;23;20009;-83
2022/12/05 06:59:33;;;;;;;28.23;11.27;;;;;;;;;;6177034;23;20012;-81
2022/12/05 07:01:59;;;;;;;26.90;11.10;;;;;;;;;;6151781;23;20017;-81
2022/12/05 07:04:26;;;;;;;31.83;11.85;;;;;;;;;;6147386;23;20009;-81
2022/12/05 07:06:53;;;;;;;27.15;11.98;;;;;;;;;;6124171;23;20025;-83
2022/12/05 07:09:21;;;;;;;26.90;11.75;;;;;;;;;;6176182;23;20002;-81
2022/12/05 07:11:49;;;;;;;31.58;12.70;;;;;;;;;;6149996;23;20005;-82
2022/12/05 07:14:17;;;;;;;29.08;11.45;;;;;;;;;;6176689;23;20008;-81
2022/12/05 07:16:44;;;;;;;28.42;11.38;;;;;;;;;;6127477;23;20016;-83
2022/12/05 07:19:11;;;;;;;30.05;11.98;;;;;;;;;;6176200;23;20001;-81
2022/12/05 07:21:39;;;;;;;31.83;12.95;;;;;;;;;;6139190;23;20013;-81
2022/12/05 07:24:11;;;;;;;31.52;12.48;;;;;;;;;;6163354;23;20018;-80
2022/12/05 07:26:38;;;;;;;35.10;13.55;;;;;;;;;;6114565;23;20381;-81
2022/12/05 07:29:05;;;;;;;34.65;13.88;;;;;;;;;;6114449;23;20066;-81
2022/12/05 07:31:32;;;;;;;37.33;13.27;;;;;;;;;;6138996;23;20017;-81
2022/12/05 07:33:59;;;;;;;38.05;14.55;;;;;;;;;;6139285;23;20025;-82
2022/12/05 07:36:25;;;;;;;38.00;13.63;;;;;;;;;;6141838;23;19998;-81
2022/12/05 07:41:55;;;;;;;40.20;13.60;;;;;;;;;;6175880;23;20018;-80
2022/12/05 07:44:24;;;;;;;38.08;14.02;;;;;;;;;;6155727;23;20024;-80
2022/12/05 07:46:52;;;;;;;35.58;14.50;;;;;;;;;;6157353;23;20009;-82
2022/12/05 07:49:18;;;;;;;41.80;15.27;;;;;;;;;;6158087;23;19994;-81
2022/12/05 07:51:50;;;;;;;38.33;14.43;;;;;;;;;;6185088;23;20012;-87
2022/12/05 08:17:42;;;;;;;34.05;13.52;;;;;;;;;;6205814;23;20020;-87
2022/12/05 08:20:17;;;;;;;31.85;12.98;;;;;;;;;;6231954;23;20000;-81
2022/12/05 08:22:53;;;;;;;33.45;13.65;;;;;;;;;;6232041;23;20012;-82
2022/12/05 08:28:39;;;;;;;33.80;14.02;;;;;;;;;;6201153;23;20016;-84
2022/12/05 08:31:11;;;;;;;33.40;13.38;;;;;;;;;;6179049;23;20013;-84
2022/12/05 08:33:58;;;;;;;36.05;15.13;;;;;;;;;;6195389;23;20005;-81
2022/12/05 08:36:51;;;;;;;35.83;14.80;;;;;;;;;;6171767;23;20079;-81
2022/12/05 08:39:35;;;;;;;32.10;12.77;;;;;;;;;;6194255;23;20007;-81
2022/12/05 08:42:25;;;;;;;32.30;14.32;;;;;;;;;;6181230;23;20008;-82
2022/12/05 08:48:32;;;;;;;31.98;13.85;;;;;;;;;;6220454;23;20016;-82
2022/12/05 08:51:31;;;;;;;36.03;14.68;;;;;;;;;;6210191;23;20079;-81
2022/12/05 08:54:09;;;;;;;33.38;14.50;;;;;;;;;;6230867;23;20368;-81
2022/12/05 08:57:10;;;;;;;36.97;15.13;;;;;;;;;;6231676;23;20009;-82
2022/12/05 09:02:43;;;;;;;39.60;16.48;;;;;;;;;;6231659;23;20028;-82
2022/12/05 09:05:52;;;;;;;35.38;14.95;;;;;;;;;;6212387;23;20009;-81
2022/12/05 09:08:41;;;;;;;36.47;15.50;;;;;;;;;;6231752;23;20403;-81
2022/12/05 09:11:28;;;;;;;37.03;16.50;;;5.20;99.90;;;;;;6200643;23;20095;-82
2022/12/05 09:14:31;;;;;;;31.80;13.75;;;;;;;;;;6231985;23;20012;-81
2022/12/05 09:17:23;;;;;;;33.92;13.60;;;;;;;;;;6206813;23;20008;-81
2022/12/05 09:23:21;;;;;;;27.77;12.93;;;;;;;;;;6232348;23;20026;-82
2022/12/05 09:27:01;;;;;;;28.85;12.82;;;5.40;99.90;;;;;;6230416;23;20036;-81
2022/12/05 09:30:24;;;;;;;27.23;11.95;;;5.50;99.90;;;;;;6222535;23;20013;-79
2022/12/05 09:33:27;;;;;;;24.98;11.15;;;;;;;;;;6206798;23;20064;-81
2022/12/05 09:37:05;;;;;;;26.60;10.82;;;5.40;99.90;;;;;;6236894;23;20039;-82
2022/12/05 09:39:42;;;;;;;29.13;13.27;;;;;;;;;;6200238;23;20013;-81
2022/12/05 09:42:44;;;;;;;26.17;11.00;;;;;;;;;;6229193;23;20004;-83
2022/12/05 09:45:35;;;;;;;24.05;11.70;;;;;;;;;;6209642;23;19995;-81
2022/12/05 09:48:49;;;;;;;22.23;10.48;;;;;;;;;;6230737;23;20000;-80
2022/12/05 09:51:56;;;;;;;21.65;10.73;;;;;;;;;;6238488;23;19989;-81
2022/12/05 09:55:23;;;;;;;21.85;9.90;;;;;;;;;;6243106;22;20025;-83
2022/12/05 10:08:33;;;;;;;19.55;9.45;;;;;;;;;;6151058;23;20009;-77
2022/12/05 10:11:40;;;;;;;19.42;8.38;;;;;;;;;;6068790;23;20018;-81
2022/12/05 10:14:34;;;;;;;19.38;8.90;;;;;;;;;;6012354;23;20003;-82
2022/12/05 10:17:42;;;;;;;20.75;9.77;;;;;;;;;;5979095;23;20012;-84
2022/12/05 10:24:07;;;;;;;14.88;7.65;;;5.60;99.90;;;;;;6219703;23;20081;-80
2022/12/05 10:27:11;;;;;;;20.30;8.27;;;;;;;;;;6219798;23;20482;-78
2022/12/05 10:56:28;;;;;;;14.02;6.82;;;6.10;99.90;;;;;;6137901;23;20380;-88
2022/12/05 11:22:53;;;;;;;13.05;6.63;;;6.00;99.90;;;;;;6108447;23;20348;-85
2022/12/05 11:29:04;;;;;;;13.85;6.28;;;;;;;;;;6026954;23;20051;-83
2022/12/05 11:32:02;;;;;;;13.57;6.25;;;;;;;;;;6041183;23;20007;-81
2022/12/05 11:34:52;;;;;;;11.15;6.18;;;;;;;;;;6006062;23;20059;-85
2022/12/05 11:38:00;;;;;;;11.18;6.20;;;;;;;;;;6109499;23;20010;-82
2022/12/05 11:41:06;;;;;;;10.23;5.53;;;;;;;;;;6129204;23;20010;-82
2022/12/05 11:46:59;;;;;;;7.85;4.32;;;;;;;;;;6131780;23;20036;-81
2022/12/05 11:49:51;;;;;;;7.20;4.10;;;;;;;;;;6130970;23;20246;-80
2022/12/05 11:52:55;;;;;;;7.25;4.32;;;;;;;;;;6128253;23;20013;-84
2022/12/05 11:56:10;;;;;;;5.53;3.40;;;;;;;;;;6089209;23;20081;-81
2022/12/05 11:58:42;;;;;;;6.63;3.38;;;;;;;;;;6049313;23;20003;-86
2022/12/05 12:01:43;;;;;;;6.28;3.60;;;6.60;99.90;;;;;;6128589;23;20014;-81
2022/12/05 12:11:38;;;;;;;4.85;2.58;;;6.50;99.90;;;;;;6040055;23;20484;-81
2022/12/05 12:14:24;;;;;;;5.25;2.58;;;;;;;;;;6014602;23;20018;-81
2022/12/05 12:17:47;;;;;;;4.97;2.72;;;6.40;99.90;;;;;;6127242;23;20029;-81
2022/12/05 12:31:09;;;;;;;4.28;2.20;;;;;;;;;;6125868;23;20044;-84
2022/12/05 12:34:29;;;;;;;3.90;1.90;;;;;;;;;;6103344;23;20047;-83
2022/12/05 12:47:56;;;;;;;6.65;2.47;;;6.40;99.90;;;;;;6046572;23;20010;-83
2022/12/05 12:51:02;;;;;;;6.00;2.85;;;;;;;;;;6051792;23;20033;-83
2022/12/05 13:00:26;;;;;;;4.53;2.70;;;;;;;;;;6073995;23;20021;-87
2022/12/05 13:03:46;;;;;;;4.07;2.30;;;;;;;;;;6016389;23;20016;-85
2022/12/05 13:09:58;;;;;;;4.10;2.50;;;;;;;;;;6075475;23;20039;-85
2022/12/05 13:25:54;;;;;;;3.75;2.33;;;6.10;99.90;;;;;;5939630;24;20069;-85
2022/12/05 13:29:00;;;;;;;6.78;2.67;;;;;;;;;;5925203;24;20031;-84
2022/12/05 13:34:57;;;;;;;5.60;3.20;;;;;;;;;;6032981;23;20125;-84
2022/12/05 13:44:14;;;;;;;3.90;2.40;;;;;;;;;;6022669;23;20035;-89
2022/12/05 13:51:07;;;;;;;4.32;2.70;;;6.20;99.90;;;;;;5994872;24;20129;-88
2022/12/05 13:57:43;;;;;;;5.05;3.00;;;6.20;99.90;;;;;;6144530;23;20228;-86
2022/12/05 14:07:39;;;;;;;4.60;2.90;;;6.30;99.90;;;;;;6077180;23;20092;-87
2022/12/05 14:14:30;;;;;;;4.05;2.55;;;6.40;99.90;;;;;;6103867;23;20046;-87
2022/12/05 14:24:41;;;;;;;6.05;3.72;;;6.20;99.90;;;;;;6017777;23;20062;-83
2022/12/05 14:50:15;;;;;;;4.60;3.17;;;;;;;;;;5723378;25;20084;-84
2022/12/05 14:53:59;;;;;;;;;;;;;;;;;;;;;
2022/12/05 15:00:05;;;;;;;4.90;2.90;;;;;;;;;;5907180;24;20016;-87
2022/12/05 15:02:39;;;;;;;4.32;3.00;;;;;;;;;;5905945;24;20013;-87
2022/12/05 15:08:55;;;;;;;4.45;3.22;;;;;;;;;;6044101;23;20010;-83
2022/12/05 15:28:07;;;;;;;5.35;3.08;;;;;;;;;;6166393;23;20138;-86
2022/12/05 15:41:09;;;;;;;7.18;3.40;;;;;;;;;;6074120;23;20018;-84
2022/12/05 15:50:58;;;;;;;7.00;4.20;;;6.20;99.90;;;;;;6078385;23;20010;-88
2022/12/05 18:19:33;;;;;;;5.32;3.40;;;5.80;99.90;;;;;;6163926;23;20041;-82
2022/12/05 18:28:50;;;;;;;5.97;3.88;;;;;;;;;;6166116;23;20012;-83
2022/12/05 18:57:58;;;;;;;6.78;3.40;;;5.80;99.90;;;;;;6078245;23;20028;-88
2022/12/05 19:00:29;;;;;;;6.18;3.70;;;;;;;;;;6068070;23;20007;-84
2022/12/05 19:48:36;;;;;;;3.53;1.98;;;5.70;99.90;;;;;;5753592;25;20047;-82
2022/12/05 20:01:44;;;;;;;4.50;2.20;;;;;;;;;;5912001;24;20021;-83
2022/12/05 20:05:12;;;;;;;3.97;2.20;;;;;;;;;;5909160;24;20016;-82
2022/12/05 20:11:16;;;;;;;4.25;2.33;;;;;;;;;;5853080;24;19916;-89
2022/12/05 20:14:11;;;;;;;4.47;1.90;;;;;;;;;;5861959;24;20025;-83
2022/12/05 20:17:25;;;;;;;4.75;2.40;;;;;;;;;;5909775;24;20009;-79
2022/12/05 20:20:32;;;;;;;3.35;2.22;;;5.40;99.90;;;;;;5932617;24;20056;-82
2022/12/05 20:23:02;;;;;;;4.88;2.75;;;;;;;;;;6063865;23;20030;-83
2022/12/05 20:26:45;;;;;;;7.00;2.92;;;5.40;99.90;;;;;;6108303;23;20013;-86
2022/12/05 20:30:00;;;;;;;4.78;2.70;;;;;;;;;;6084698;23;20010;-82
2022/12/05 20:36:24;;;;;;;5.82;2.50;;;;;;;;;;6138795;23;20013;-84
2022/12/05 20:39:31;;;;;;;4.28;2.40;;;;;;;;;;6088408;23;20010;-85
2022/12/05 20:42:42;;;;;;;4.47;2.60;;;5.40;99.90;;;;;;6076335;23;20038;-82
2022/12/05 20:45:57;;;;;;;7.05;3.33;;;;;;;;;;6108974;23;20069;-84
2022/12/05 20:49:31;;;;;;;4.30;2.40;;;5.40;99.90;;;;;;6110889;23;20010;-82
2022/12/05 20:52:41;;;;;;;5.38;2.83;;;;;;;;;;6106407;23;20351;-84
2022/12/05 20:56:14;;;;;;;5.28;2.90;;;5.40;99.90;;;;;;6056997;23;20017;-80
2022/12/05 21:05:51;;;;;;;10.15;3.47;;;;;;;;;;6017441;23;20026;-82
2022/12/05 21:09:30;;;;;;;7.38;3.70;;;5.40;99.90;;;;;;5977328;23;20007;-87
2022/12/05 21:24:43;;;;;;;13.30;3.63;;;;;;;;;;6141094;23;20045;-84
2022/12/05 21:27:26;;;;;;;8.52;3.90;;;;;;;;;;6140410;23;20017;-80
2022/12/05 21:29:55;;;;;;;8.98;3.85;;;;;;;;;;6139522;23;20382;-81
2022/12/05 21:32:31;;;;;;;6.47;3.72;;;;;;;;;;6139551;23;20002;-84
2022/12/05 21:41:16;;;;;;;6.65;3.70;;;;;;;;;;6141688;23;20017;-80
2022/12/05 21:44:04;;;;;;;5.13;3.20;;;;;;;;;;6114546;23;20112;-81
2022/12/05 21:47:14;;;;;;;6.65;3.63;;;;;;;;;;6138730;23;20018;-82
2022/12/05 21:50:08;;;;;;;6.95;4.30;;;;;;;;;;6144408;23;20073;-84
2022/12/05 21:59:31;;;;;;;19.20;13.23;;;;;;;;;;6076279;23;20016;-84
2022/12/05 22:02:45;;;;;;;15.00;11.55;;;;;;;;;;6117271;23;20085;-85
2022/12/05 22:05:15;;;;;;;12.68;8.45;;;;;;;;;;6110358;23;20020;-87
2022/12/05 22:07:42;;;;;;;11.20;7.25;;;;;;;;;;6141155;23;20024;-84
2022/12/05 22:10:12;;;;;;;11.63;6.78;;;;;;;;;;6140930;23;20016;-83
2022/12/05 22:13:11;;;;;;;11.05;6.03;;;;;;;;;;6140126;23;20010;-82
2022/12/05 22:15:48;;;;;;;7.95;5.10;;;;;;;;;;6116445;23;20034;-82
2022/12/05 22:18:23;;;;;;;7.15;4.10;;;;;;;;;;6141438;23;20010;-82
2022/12/05 22:21:15;;;;;;;7.80;4.43;;;5.20;99.90;;;;;;6139871;23;20014;-82
2022/12/05 22:23:50;;;;;;;7.10;3.67;;;;;;;;;;6116986;23;20062;-83
2022/12/05 22:56:30;;;;;;;10.43;4.68;;;;;;;;;;6141237;23;20006;-82
2022/12/05 22:59:13;;;;;;;4.82;2.90;;;;;;;;;;6189718;23;20004;-82
2022/12/05 23:02:06;;;;;;;4.93;3.03;;;;;;;;;;6225988;23;20001;-80
2022/12/05 23:05:22;;;;;;;4.88;2.88;;;;;;;;;;6168671;23;20012;-81
